Time,TemperatureF,DewpointF,PressureIn,WindDirection,WindDirectionDegrees,WindSpeedMPH,WindSpeedGustMPH,Humidity,HourlyPrecipIn,Conditions,Clouds,dailyrainin,SoftwareType,DateUTC
2013-03-02 08:49:00,33.4,28.2,28.44,SW,230,9.2,0.0,81,0.00,CLR,CLR,0.00,WeatherDisplay:10.37,2013-03-02 13:49:00,
2013-03-02 08:51:00,33.5,28.3,28.45,SW,230,9.2,9.2,81,0.00,CLR,CLR,0.00,WeatherDisplay:10.37,2013-03-02 13:51:00,
2013-03-02 08:52:00,33.6,28.7,28.42,SW,230,9.2,9.2,82,0.00,CLR,CLR,0.00,WeatherDisplay:10.37,2013-03-02 13:52:00,
2013-03-02 08:57:00,34.0,28.8,28.42,SW,230,0.0,0.0,81,0.00,CLR,CLR,0.00,WeatherDisplay:10.37,2013-03-02 13:57:00,
2013-03-02 09:02:00,34.5,29.3,28.42,SW,230,0.0,0.0,81,0.00,CLR,CLR,0.00,WeatherDisplay:10.37,2013-03-02 14:02:00,
2013-03-02 09:07:00,34.7,29.5,28.42,SW,230,0.0,0.1,81,0.00,CLR,CLR,0.00,WeatherDisplay:10.37,2013-03-02 14:07:00,
2013-03-02 09:13:00,35.0,29.1,28.41,SW,230,1.2,1.2,79,0.00,CLR,CLR,0.00,WeatherDisplay:10.37,2013-03-02 14:13:00,
2013-03-02 09:18:00,35.2,28.7,28.42,WSW,247,3.5,3.5,77,0.00,CLR,CLR,0.00,WeatherDisplay:10.37,2013-03-02 14:18:00,
2013-03-02 09:23:00,35.5,29.0,28.41,WSW,243,3.5,3.5,77,0.00,CLR,CLR,0.00,WeatherDisplay:10.37,2013-03-02 14:23:00,
2013-03-02 09:28:00,35.8,28.6,28.42,WSW,254,3.5,3.5,75,0.00,CLR,CLR,0.00,WeatherDisplay:10.37,2013-03-02 14:28:00,
2013-03-02 09:33:00,36.3,28.8,28.40,WNW,298,5.8,5.8,74,0.00,CLR,CLR,0.00,WeatherDisplay:10.37,2013-03-02 14:33:00,
2013-03-02 09:39:00,36.5,28.7,28.41,West,259,4.0,4.0,73,0.00,CLR,CLR,0.00,WeatherDisplay:10.37,2013-03-02 14:39:00,
2013-03-02 09:44:00,36.8,28.6,28.41,West,259,3.5,3.5,72,0.00,CLR,CLR,0.00,WeatherDisplay:10.37,2013-03-02 14:44:00,
2013-03-02 09:49:00,37.0,28.5,28.40,West,275,3.5,3.5,71,0.00,CLR,CLR,0.00,WeatherDisplay:10.37,2013-03-02 14:49:00,
2013-03-02 09:54:00,36.9,28.7,28.39,West,266,3.5,3.5,72,0.00,CLR,CLR,0.00,WeatherDisplay:10.37,2013-03-02 14:54:00,
2013-03-02 09:59:00,37.0,28.8,28.40,North,7,9.2,9.2,72,0.00,CLR,CLR,0.00,WeatherDisplay:10.37,2013-03-02 14:59:00,
2013-03-02 10:05:00,36.8,28.3,28.39,NNW,330,6.9,6.9,71,0.00,CLR,CLR,0.00,WeatherDisplay:10.37,2013-03-02 15:05:00,
2013-03-02 10:10:00,36.9,28.4,28.40,NNW,332,3.5,3.5,71,0.00,CLR,CLR,0.00,WeatherDisplay:10.37,2013-03-02 15:10:00,
2013-03-02 10:15:00,36.9,28.0,28.39,NNW,333,5.0,5.0,70,0.00,CLR,CLR,0.00,WeatherDisplay:10.37,2013-03-02 15:15:00,
2013-03-02 10:20:00,37.0,28.1,28.38,North,349,3.5,3.5,70,0.00,CLR,CLR,0.00,WeatherDisplay:10.37,2013-03-02 15:20:00,
2013-03-02 10:25:00,36.8,27.9,28.38,NNW,328,4.6,4.6,70,0.00,CLR,CLR,0.00,WeatherDisplay:10.37,2013-03-02 15:25:00,
2013-03-02 10:31:00,36.8,27.9,28.40,NNW,344,4.6,4.6,70,0.00,CLR,CLR,0.00,WeatherDisplay:10.37,2013-03-02 15:31:00,
2013-03-02 10:36:00,36.9,28.0,28.39,NNW,329,8.1,8.1,70,0.00,CLR,CLR,0.00,WeatherDisplay:10.37,2013-03-02 15:36:00,
2013-03-02 10:41:00,36.5,27.6,28.39,NNW,327,8.1,8.1,70,0.00,CLR,CLR,0.00,WeatherDisplay:10.37,2013-03-02 15:41:00,
2013-03-02 10:46:00,36.5,27.6,28.39,NW,314,5.8,5.8,70,0.00,CLR,CLR,0.00,WeatherDisplay:10.37,2013-03-02 15:46:00,
2013-03-02 10:52:00,36.6,27.7,28.39,NNW,336,3.5,3.5,70,0.00,CLR,CLR,0.00,WeatherDisplay:10.37,2013-03-02 15:52:00,
2013-03-02 10:57:00,36.6,27.7,28.38,NNW,334,5.0,5.0,70,0.00,CLR,CLR,0.00,WeatherDisplay:10.37,2013-03-02 15:57:00,
2013-03-02 11:02:00,36.8,27.9,28.38,NW,319,6.9,6.9,70,0.00,CLR,CLR,0.00,WeatherDisplay:10.37,2013-03-02 16:02:00,
2013-03-02 11:07:00,37.0,28.1,28.39,NW,323,4.6,4.6,70,0.00,CLR,CLR,0.00,WeatherDisplay:10.37,2013-03-02 16:07:00,
2013-03-02 11:13:00,37.1,27.9,28.40,North,0,4.6,4.6,69,0.00,CLR,CLR,0.00,WeatherDisplay:10.37,2013-03-02 16:13:00,
2013-03-02 11:18:00,37.2,28.3,28.40,NNE,15,3.5,3.5,70,0.00,CLR,CLR,0.00,WeatherDisplay:10.37,2013-03-02 16:18:00,
2013-03-02 11:23:00,37.7,28.4,28.40,NNW,347,8.1,8.1,69,0.00,CLR,CLR,0.00,WeatherDisplay:10.37,2013-03-02 16:23:00,
2013-03-02 11:28:00,37.8,28.2,28.37,NW,315,10.4,10.4,68,0.00,CLR,CLR,0.00,WeatherDisplay:10.37,2013-03-02 16:28:00,
2013-03-02 11:34:00,37.9,28.3,28.39,NW,323,6.9,6.9,68,0.00,CLR,CLR,0.00,WeatherDisplay:10.37,2013-03-02 16:34:00,
2013-03-02 11:39:00,38.0,28.4,28.39,North,357,5.8,5.8,68,0.00,CLR,CLR,0.00,WeatherDisplay:10.37,2013-03-02 16:39:00,
2013-03-02 11:44:00,38.3,28.7,28.40,WSW,252,4.6,4.6,68,0.00,CLR,CLR,0.00,WeatherDisplay:10.37,2013-03-02 16:44:00,
2013-03-02 11:49:00,38.6,28.6,28.38,West,275,3.5,3.5,67,0.00,CLR,CLR,0.00,WeatherDisplay:10.37,2013-03-02 16:49:00,
2013-03-02 11:54:00,38.8,28.4,28.39,West,260,10.4,10.4,66,0.00,CLR,CLR,0.00,WeatherDisplay:10.37,2013-03-02 16:54:00,
2013-03-02 12:00:00,39.4,28.2,28.38,WSW,247,4.6,4.6,64,0.00,CLR,CLR,0.00,WeatherDisplay:10.37,2013-03-02 17:00:00,
2013-03-02 12:05:00,39.7,28.1,28.35,NW,304,8.1,8.1,63,0.00,CLR,CLR,0.00,WeatherDisplay:10.37,2013-03-02 17:05:00,
2013-03-02 12:10:00,39.8,28.6,28.39,NW,319,5.8,5.8,64,0.00,CLR,CLR,0.00,WeatherDisplay:10.37,2013-03-02 17:10:00,
2013-03-02 12:15:00,39.6,27.6,28.37,West,271,8.0,8.0,62,0.00,CLR,CLR,0.00,WeatherDisplay:10.37,2013-03-02 17:15:00,
2013-03-02 12:20:00,39.7,27.7,28.39,NW,311,8.1,9.0,62,0.00,CLR,CLR,0.00,WeatherDisplay:10.37,2013-03-02 17:20:00,
2013-03-02 12:26:00,39.6,26.8,28.36,NW,310,17.3,17.3,60,0.00,CLR,CLR,0.00,WeatherDisplay:10.37,2013-03-02 17:26:00,
2013-03-02 12:31:00,39.2,26.9,28.38,WNW,282,11.5,11.5,61,0.00,CLR,CLR,0.00,WeatherDisplay:10.37,2013-03-02 17:31:00,
2013-03-02 12:36:00,39.0,26.3,28.38,West,268,12.7,12.7,60,0.00,CLR,CLR,0.00,WeatherDisplay:10.37,2013-03-02 17:36:00,
2013-03-02 12:41:00,38.7,26.8,28.38,North,356,12.7,12.7,62,0.00,CLR,CLR,0.00,WeatherDisplay:10.37,2013-03-02 17:41:00,
2013-03-02 12:46:00,38.7,27.2,28.40,NW,305,7.0,7.0,63,0.00,CLR,CLR,0.00,WeatherDisplay:10.37,2013-03-02 17:46:00,
2013-03-02 12:52:00,39.0,27.5,28.39,NW,325,8.1,8.1,63,0.00,CLR,CLR,0.00,WeatherDisplay:10.37,2013-03-02 17:52:00,
2013-03-02 12:57:00,39.2,26.9,28.35,West,279,16.1,16.1,61,0.00,CLR,CLR,0.00,WeatherDisplay:10.37,2013-03-02 17:57:00,
2013-03-02 13:02:00,39.3,27.0,28.35,West,270,15.0,15.0,61,0.00,CLR,CLR,0.00,WeatherDisplay:10.37,2013-03-02 18:02:00,
2013-03-02 13:07:00,40.2,28.2,28.34,SSW,213,8.1,8.1,62,0.00,CLR,CLR,0.00,WeatherDisplay:10.37,2013-03-02 18:07:00,
2013-03-02 13:13:00,40.7,28.3,28.34,NW,313,12.7,12.7,61,0.00,CLR,CLR,0.00,WeatherDisplay:10.37,2013-03-02 18:13:00,
2013-03-02 13:18:00,39.9,27.1,28.36,North,356,15.0,15.0,60,0.00,CLR,CLR,0.00,WeatherDisplay:10.37,2013-03-02 18:18:00,
2013-03-02 13:23:00,39.6,26.8,28.37,NNW,346,12.0,12.0,60,0.00,CLR,CLR,0.00,WeatherDisplay:10.37,2013-03-02 18:23:00,
2013-03-02 13:28:00,39.7,27.3,28.36,NNW,329,13.8,13.8,61,0.00,CLR,CLR,0.00,WeatherDisplay:10.37,2013-03-02 18:28:00,
2013-03-02 13:33:00,40.1,28.1,28.34,NNW,332,9.0,9.0,62,0.00,CLR,CLR,0.00,WeatherDisplay:10.37,2013-03-02 18:33:00,
2013-03-02 13:39:00,40.5,27.3,28.33,NNW,338,12.0,12.0,59,0.00,CLR,CLR,0.00,WeatherDisplay:10.37,2013-03-02 18:39:00,
2013-03-02 13:44:00,40.1,26.9,28.34,NW,324,15.0,15.0,59,0.00,CLR,CLR,0.00,WeatherDisplay:10.37,2013-03-02 18:44:00,
2013-03-02 13:49:00,39.6,26.4,28.33,NW,317,13.8,13.8,59,0.00,CLR,CLR,0.00,WeatherDisplay:10.37,2013-03-02 18:49:00,
2013-03-02 13:54:00,39.2,26.5,28.35,NNW,344,11.5,11.5,60,0.00,CLR,CLR,0.00,WeatherDisplay:10.37,2013-03-02 18:54:00,
2013-03-02 13:59:00,39.5,26.8,28.35,WNW,297,6.0,6.0,60,0.00,CLR,CLR,0.00,WeatherDisplay:10.37,2013-03-02 18:59:00,
2013-03-02 14:05:00,39.6,26.4,28.33,WNW,300,9.2,9.2,59,0.00,CLR,CLR,0.00,WeatherDisplay:10.37,2013-03-02 19:05:00,
2013-03-02 14:10:00,39.3,25.3,28.37,West,281,11.5,11.5,57,0.00,CLR,CLR,0.00,WeatherDisplay:10.37,2013-03-02 19:10:00,
2013-03-02 14:15:00,39.6,26.4,28.33,SSW,212,8.0,8.0,59,0.00,CLR,CLR,0.00,WeatherDisplay:10.37,2013-03-02 19:15:00,
2013-03-02 14:21:00,39.8,25.8,28.34,WNW,286,13.8,13.8,57,0.00,CLR,CLR,0.00,WeatherDisplay:10.37,2013-03-02 19:21:00,
2013-03-02 14:26:00,39.5,25.5,28.33,West,279,15.0,15.0,57,0.00,CLR,CLR,0.00,WeatherDisplay:10.37,2013-03-02 19:26:00,
2013-03-02 14:31:00,39.9,25.5,28.33,NW,306,11.5,11.5,56,0.00,CLR,CLR,0.00,WeatherDisplay:10.37,2013-03-02 19:31:00,
2013-03-02 14:36:00,39.9,25.9,28.33,West,278,13.8,13.8,57,0.00,CLR,CLR,0.00,WeatherDisplay:10.37,2013-03-02 19:36:00,
2013-03-02 14:42:00,39.6,25.2,28.33,NW,308,23.0,23.0,56,0.00,CLR,CLR,0.00,WeatherDisplay:10.37,2013-03-02 19:42:00,
2013-03-02 14:47:00,39.3,24.9,28.32,NNW,328,16.1,16.1,56,0.00,CLR,CLR,0.00,WeatherDisplay:10.37,2013-03-02 19:47:00,
2013-03-02 14:52:00,39.2,24.8,28.32,NW,316,14.0,14.0,56,0.00,CLR,CLR,0.00,WeatherDisplay:10.37,2013-03-02 19:52:00,
2013-03-02 14:57:00,39.2,24.8,28.32,NNW,328,15.0,15.0,56,0.00,CLR,CLR,0.00,WeatherDisplay:10.37,2013-03-02 19:57:00,
2013-03-02 15:02:00,39.6,25.6,28.33,WNW,301,10.4,10.4,57,0.00,CLR,CLR,0.00,WeatherDisplay:10.37,2013-03-02 20:02:00,
2013-03-02 15:08:00,40.2,25.7,28.31,SW,228,8.1,8.1,56,0.00,CLR,CLR,0.00,WeatherDisplay:10.37,2013-03-02 20:08:00,
2013-03-02 15:13:00,40.3,25.4,28.33,WNW,282,12.7,12.7,55,0.00,CLR,CLR,0.00,WeatherDisplay:10.37,2013-03-02 20:13:00,
2013-03-02 15:18:00,39.6,25.2,28.33,WNW,302,8.1,8.1,56,0.00,CLR,CLR,0.00,WeatherDisplay:10.37,2013-03-02 20:18:00,
2013-03-02 15:23:00,39.3,25.3,28.32,WNW,288,15.0,15.0,57,0.00,CLR,CLR,0.00,WeatherDisplay:10.37,2013-03-02 20:23:00,
2013-03-02 15:29:00,39.1,25.6,28.34,NNW,335,10.4,10.4,58,0.00,CLR,CLR,0.00,WeatherDisplay:10.37,2013-03-02 20:29:00,
2013-03-02 15:34:00,38.8,25.7,28.32,NNW,329,16.0,16.0,59,0.00,CLR,CLR,0.00,WeatherDisplay:10.37,2013-03-02 20:34:00,
2013-03-02 15:39:00,38.4,24.9,28.31,WNW,282,13.8,13.8,58,0.00,CLR,CLR,0.00,WeatherDisplay:10.37,2013-03-02 20:39:00,
2013-03-02 15:44:00,38.1,25.4,28.32,NW,316,6.9,6.9,60,0.00,CLR,CLR,0.00,WeatherDisplay:10.37,2013-03-02 20:44:00,
2013-03-02 15:49:00,37.8,25.1,28.32,NW,311,19.0,19.0,60,0.00,CLR,CLR,0.00,WeatherDisplay:10.37,2013-03-02 20:49:00,
2013-03-02 15:54:00,37.5,24.9,28.34,West,274,11.5,11.5,60,0.00,CLR,CLR,0.00,WeatherDisplay:10.37,2013-03-02 20:54:00,
2013-03-02 16:00:00,37.5,24.9,28.33,NW,316,11.5,11.5,60,0.00,CLR,CLR,0.00,WeatherDisplay:10.37,2013-03-02 21:00:00,
2013-03-02 16:05:00,37.7,25.1,28.33,West,281,11.5,11.5,60,0.00,CLR,CLR,0.00,WeatherDisplay:10.37,2013-03-02 21:05:00,
2013-03-02 16:10:00,37.4,24.8,28.34,WNW,301,11.0,11.0,60,0.00,CLR,CLR,0.00,WeatherDisplay:10.37,2013-03-02 21:10:00,
2013-03-02 16:16:00,36.9,24.3,28.32,West,275,10.4,10.4,60,0.00,CLR,CLR,0.00,WeatherDisplay:10.37,2013-03-02 21:16:00,
2013-03-02 16:21:00,36.8,24.6,28.32,WNW,283,9.2,9.2,61,0.00,CLR,CLR,0.00,WeatherDisplay:10.37,2013-03-02 21:21:00,
2013-03-02 16:26:00,36.6,24.4,28.32,WNW,296,20.7,20.7,61,0.00,CLR,CLR,0.00,WeatherDisplay:10.37,2013-03-02 21:26:00,
2013-03-02 16:31:00,36.1,23.9,28.35,West,279,8.1,8.1,61,0.00,CLR,CLR,0.00,WeatherDisplay:10.37,2013-03-02 21:31:00,
2013-03-02 16:36:00,35.9,24.1,28.33,NNW,329,11.5,11.5,62,0.00,CLR,CLR,0.00,WeatherDisplay:10.37,2013-03-02 21:36:00,
2013-03-02 16:42:00,35.8,23.7,28.36,NNW,336,11.5,11.5,61,0.00,CLR,CLR,0.00,WeatherDisplay:10.37,2013-03-02 21:42:00,
2013-03-02 16:47:00,35.7,23.9,28.34,West,272,11.5,11.5,62,0.00,CLR,CLR,0.00,WeatherDisplay:10.37,2013-03-02 21:47:00,
2013-03-02 16:52:00,35.5,24.1,28.34,NW,309,13.8,13.8,63,0.00,CLR,CLR,0.00,WeatherDisplay:10.37,2013-03-02 21:52:00,
2013-03-02 16:57:00,35.6,24.2,28.34,NNW,327,8.0,8.0,63,0.00,CLR,CLR,0.00,WeatherDisplay:10.37,2013-03-02 21:57:00,
2013-03-02 17:03:00,35.0,24.4,28.35,WNW,286,13.8,13.8,65,0.00,CLR,CLR,0.00,WeatherDisplay:10.37,2013-03-02 22:03:00,
2013-03-02 17:08:00,34.7,24.5,28.34,NW,305,5.8,5.8,66,0.00,CLR,CLR,0.00,WeatherDisplay:10.37,2013-03-02 22:08:00,
2013-03-02 17:13:00,34.4,23.8,28.36,WNW,300,10.4,10.4,65,0.00,CLR,CLR,0.00,WeatherDisplay:10.37,2013-03-02 22:13:00,
2013-03-02 17:18:00,34.3,23.7,28.37,WSW,257,5.8,5.8,65,0.00,CLR,CLR,0.00,WeatherDisplay:10.37,2013-03-02 22:18:00,
2013-03-02 17:23:00,34.4,23.8,28.37,NW,317,8.1,8.1,65,0.00,CLR,CLR,0.00,WeatherDisplay:10.37,2013-03-02 22:23:00,
2013-03-02 17:28:00,34.2,23.7,28.36,NW,304,3.5,3.5,65,0.00,CLR,CLR,0.00,WeatherDisplay:10.37,2013-03-02 22:28:00,
2013-03-02 17:33:00,34.0,23.5,28.38,West,275,9.2,9.2,65,0.00,CLR,CLR,0.00,WeatherDisplay:10.37,2013-03-02 22:33:00,
2013-03-02 17:39:00,33.8,23.3,28.37,West,273,13.0,13.0,65,0.00,CLR,CLR,0.00,WeatherDisplay:10.37,2013-03-02 22:39:00,
2013-03-02 17:44:00,33.5,23.0,28.39,WNW,302,13.0,13.0,65,0.00,CLR,CLR,0.00,WeatherDisplay:10.37,2013-03-02 22:44:00,
2013-03-02 17:49:00,33.3,22.8,28.38,NNW,336,8.1,8.1,65,0.00,CLR,CLR,0.00,WeatherDisplay:10.37,2013-03-02 22:49:00,
2013-03-02 17:55:00,33.1,22.6,28.39,NNW,343,12.7,12.7,65,0.00,CLR,CLR,0.00,WeatherDisplay:10.37,2013-03-02 22:55:00,
2013-03-02 18:00:00,33.0,22.5,28.40,WNW,297,11.5,11.5,65,0.00,CLR,CLR,0.00,WeatherDisplay:10.37,2013-03-02 23:00:00,
2013-03-02 18:05:00,32.8,22.3,28.39,NW,315,9.2,9.2,65,0.00,CLR,CLR,0.00,WeatherDisplay:10.37,2013-03-02 23:05:00,
2013-03-02 18:10:00,33.0,22.1,28.29,NW,305,12.7,12.7,64,0.00,CLR,CLR,0.00,WeatherDisplay:10.37,2013-03-02 23:10:00,
2013-03-02 18:16:00,32.6,21.8,28.28,NNW,341,16.1,16.1,64,0.00,CLR,CLR,0.00,WeatherDisplay:10.37,2013-03-02 23:16:00,
2013-03-02 18:21:00,32.4,21.2,28.28,West,269,12.0,12.0,63,0.00,CLR,CLR,0.00,WeatherDisplay:10.37,2013-03-02 23:21:00,
2013-03-02 18:26:00,32.4,21.2,28.28,NW,313,9.2,9.2,63,0.00,CLR,CLR,0.00,WeatherDisplay:10.37,2013-03-02 23:26:00,
2013-03-02 18:31:00,32.2,21.4,28.28,NW,321,8.0,8.0,64,0.00,CLR,CLR,0.00,WeatherDisplay:10.37,2013-03-02 23:31:00,
2013-03-02 18:36:00,32.1,21.3,28.28,WNW,294,10.4,10.4,64,0.00,CLR,CLR,0.00,WeatherDisplay:10.37,2013-03-02 23:36:00,
2013-03-02 18:42:00,32.1,21.7,28.28,WNW,300,8.1,8.1,65,0.00,CLR,CLR,0.00,WeatherDisplay:10.37,2013-03-02 23:42:00,
2013-03-02 18:47:00,32.0,21.6,28.28,WNW,296,9.2,9.2,65,0.00,CLR,CLR,0.00,WeatherDisplay:10.37,2013-03-02 23:47:00,
2013-03-02 18:52:00,32.0,21.6,28.29,WNW,298,4.6,4.6,65,0.00,CLR,CLR,0.00,WeatherDisplay:10.37,2013-03-02 23:52:00,
2013-03-02 18:57:00,32.0,21.9,28.29,NW,325,9.2,9.2,66,0.00,CLR,CLR,0.00,WeatherDisplay:10.37,2013-03-02 23:57:00,
2013-03-02 19:03:00,31.9,21.8,28.29,NNW,344,11.5,11.5,66,0.00,CLR,CLR,0.00,WeatherDisplay:10.37,2013-03-03 00:03:00,
2013-03-02 19:08:00,31.8,22.1,28.29,NNW,342,12.7,12.7,67,0.00,CLR,CLR,0.00,WeatherDisplay:10.37,2013-03-03 00:08:00,
2013-03-02 19:13:00,31.7,21.3,28.30,NW,322,15.0,15.0,65,0.00,CLR,CLR,0.00,WeatherDisplay:10.37,2013-03-03 00:13:00,
2013-03-02 19:18:00,31.4,21.0,28.30,NNW,347,19.6,19.6,65,0.00,CLR,CLR,0.00,WeatherDisplay:10.37,2013-03-03 00:18:00,
2013-03-02 19:23:00,31.3,20.5,28.29,NNW,346,7.0,7.4,64,0.00,CLR,CLR,0.00,WeatherDisplay:10.37,2013-03-03 00:23:00,
2013-03-02 19:29:00,31.0,20.2,28.30,WNW,287,5.8,5.8,64,0.00,CLR,CLR,0.00,WeatherDisplay:10.37,2013-03-03 00:29:00,
2013-03-02 19:34:00,30.7,19.6,28.30,NW,319,12.7,12.7,63,0.00,CLR,CLR,0.00,WeatherDisplay:10.37,2013-03-03 00:34:00,
2013-03-02 19:39:00,30.5,19.4,28.30,WNW,282,9.2,9.2,63,0.00,CLR,CLR,0.00,WeatherDisplay:10.37,2013-03-03 00:39:00,
2013-03-02 19:44:00,30.3,19.6,28.30,WNW,293,11.5,11.5,64,0.00,CLR,CLR,0.00,WeatherDisplay:10.37,2013-03-03 00:44:00,
2013-03-02 19:50:00,30.0,18.9,28.31,WNW,298,15.0,15.0,63,0.00,CLR,CLR,0.00,WeatherDisplay:10.37,2013-03-03 00:50:00,
2013-03-02 19:55:00,29.9,19.2,28.30,NW,306,8.1,8.1,64,0.00,CLR,CLR,0.00,WeatherDisplay:10.37,2013-03-03 00:55:00,
2013-03-02 20:00:00,29.8,19.1,28.30,West,277,5.0,5.0,64,0.00,CLR,CLR,0.00,WeatherDisplay:10.37,2013-03-03 01:00:00,
2013-03-02 20:05:00,29.8,19.1,28.31,WNW,292,11.5,11.5,64,0.00,CLR,CLR,0.00,WeatherDisplay:10.37,2013-03-03 01:05:00,
2013-03-02 20:11:00,29.7,19.0,28.31,North,351,5.8,5.8,64,0.00,CLR,CLR,0.00,WeatherDisplay:10.37,2013-03-03 01:11:00,
2013-03-02 20:16:00,29.8,19.8,28.30,NW,305,21.0,21.0,66,0.00,CLR,CLR,0.00,WeatherDisplay:10.37,2013-03-03 01:16:00,
2013-03-02 20:21:00,29.9,20.3,28.30,NNW,332,11.5,11.5,67,0.00,CLR,CLR,0.00,WeatherDisplay:10.37,2013-03-03 01:21:00,
2013-03-02 20:26:00,30.0,20.4,28.30,North,350,10.4,10.4,67,0.00,CLR,CLR,0.00,WeatherDisplay:10.37,2013-03-03 01:26:00,
2013-03-02 20:31:00,30.1,20.5,28.31,NNW,336,20.7,20.7,67,0.00,CLR,CLR,0.00,WeatherDisplay:10.37,2013-03-03 01:31:00,
2013-03-02 20:36:00,30.1,20.5,28.30,NW,322,11.5,11.5,67,0.00,CLR,CLR,0.00,WeatherDisplay:10.37,2013-03-03 01:36:00,
2013-03-02 20:42:00,30.1,20.1,28.31,NW,321,19.6,19.6,66,0.00,CLR,CLR,0.00,WeatherDisplay:10.37,2013-03-03 01:42:00,
2013-03-02 20:47:00,30.1,20.1,28.30,North,351,4.0,4.0,66,0.00,CLR,CLR,0.00,WeatherDisplay:10.37,2013-03-03 01:47:00,
2013-03-02 20:52:00,30.1,20.1,28.31,North,350,8.1,8.1,66,0.00,CLR,CLR,0.00,WeatherDisplay:10.37,2013-03-03 01:52:00,
2013-03-02 20:57:00,30.1,20.5,28.31,NW,319,4.6,4.6,67,0.00,CLR,CLR,0.00,WeatherDisplay:10.37,2013-03-03 01:57:00,
2013-03-02 21:02:00,30.1,20.5,28.31,NW,317,3.5,3.5,67,0.00,CLR,CLR,0.00,WeatherDisplay:10.37,2013-03-03 02:02:00,
2013-03-02 21:08:00,30.1,20.5,28.31,NW,313,4.6,4.6,67,0.00,CLR,CLR,0.00,WeatherDisplay:10.37,2013-03-03 02:08:00,
2013-03-02 21:13:00,30.1,20.5,28.32,WNW,289,9.2,9.2,67,0.00,CLR,CLR,0.00,WeatherDisplay:10.37,2013-03-03 02:13:00,
2013-03-02 21:18:00,30.2,20.6,28.31,NNW,330,8.1,8.1,67,0.00,CLR,CLR,0.00,WeatherDisplay:10.37,2013-03-03 02:18:00,
2013-03-02 21:23:00,30.1,20.5,28.31,North,4,10.4,10.4,67,0.00,CLR,CLR,0.00,WeatherDisplay:10.37,2013-03-03 02:23:00,
2013-03-02 21:28:00,30.1,20.1,28.31,North,356,12.7,12.7,66,0.00,CLR,CLR,0.00,WeatherDisplay:10.37,2013-03-03 02:28:00,
2013-03-02 21:34:00,30.0,20.0,28.32,NW,314,9.2,9.2,66,0.00,CLR,CLR,0.00,WeatherDisplay:10.37,2013-03-03 02:34:00,
2013-03-02 21:39:00,30.0,20.0,28.31,West,270,8.1,8.1,66,0.00,CLR,CLR,0.00,WeatherDisplay:10.37,2013-03-03 02:39:00,
2013-03-02 21:44:00,29.9,19.9,28.32,NNW,329,3.5,3.5,66,0.00,CLR,CLR,0.00,WeatherDisplay:10.37,2013-03-03 02:44:00,
2013-03-02 21:49:00,29.8,19.5,28.31,NNW,327,16.1,16.1,65,0.00,CLR,CLR,0.00,WeatherDisplay:10.37,2013-03-03 02:49:00,
2013-03-02 21:54:00,29.6,19.3,28.32,NW,315,11.5,11.5,65,0.00,CLR,CLR,0.00,WeatherDisplay:10.37,2013-03-03 02:54:00,
2013-03-02 21:59:00,29.6,19.3,28.31,NW,318,7.0,7.0,65,0.00,CLR,CLR,0.00,WeatherDisplay:10.37,2013-03-03 02:59:00,
2013-03-02 22:05:00,29.6,19.3,28.32,NW,314,10.0,10.0,65,0.00,CLR,CLR,0.00,WeatherDisplay:10.37,2013-03-03 03:05:00,
2013-03-02 22:10:00,29.5,19.2,28.31,WNW,296,11.5,11.5,65,0.00,CLR,CLR,0.00,WeatherDisplay:10.37,2013-03-03 03:10:00,
2013-03-02 22:15:00,29.5,19.5,28.32,West,270,13.8,13.8,66,0.00,CLR,CLR,0.00,WeatherDisplay:10.37,2013-03-03 03:15:00,
2013-03-02 22:20:00,29.5,19.5,28.31,NW,319,11.0,11.0,66,0.00,CLR,CLR,0.00,WeatherDisplay:10.37,2013-03-03 03:20:00,
2013-03-02 22:25:00,29.5,19.5,28.31,WNW,297,16.1,16.1,66,0.00,CLR,CLR,0.00,WeatherDisplay:10.37,2013-03-03 03:25:00,
2013-03-02 22:30:00,29.4,19.8,28.31,NNW,332,10.4,10.4,67,0.00,CLR,CLR,0.00,WeatherDisplay:10.37,2013-03-03 03:30:00,
2013-03-02 22:36:00,29.4,19.8,28.32,NNW,343,10.0,10.0,67,0.00,CLR,CLR,0.00,WeatherDisplay:10.37,2013-03-03 03:36:00,
2013-03-02 22:41:00,29.3,19.7,28.31,West,272,5.8,5.8,67,0.00,CLR,CLR,0.00,WeatherDisplay:10.37,2013-03-03 03:41:00,
2013-03-02 22:46:00,29.3,19.3,28.31,NW,326,8.1,8.1,66,0.00,CLR,CLR,0.00,WeatherDisplay:10.37,2013-03-03 03:46:00,
2013-03-02 22:51:00,29.3,19.7,28.31,NW,318,11.5,11.5,67,0.00,CLR,CLR,0.00,WeatherDisplay:10.37,2013-03-03 03:51:00,
2013-03-02 22:56:00,29.3,19.7,28.31,WNW,293,12.7,12.7,67,0.00,CLR,CLR,0.00,WeatherDisplay:10.37,2013-03-03 03:56:00,
2013-03-02 23:01:00,29.3,19.7,28.31,North,349,11.5,11.5,67,0.00,CLR,CLR,0.00,WeatherDisplay:10.37,2013-03-03 04:01:00,
2013-03-02 23:07:00,29.3,19.7,28.32,NNW,331,11.5,11.5,67,0.00,CLR,CLR,0.00,WeatherDisplay:10.37,2013-03-03 04:07:00,
2013-03-02 23:12:00,29.2,19.6,28.31,NW,322,11.5,11.5,67,0.00,CLR,CLR,0.00,WeatherDisplay:10.37,2013-03-03 04:12:00,
2013-03-02 23:17:00,29.2,19.6,28.31,West,268,13.8,13.8,67,0.00,CLR,CLR,0.00,WeatherDisplay:10.37,2013-03-03 04:17:00,
2013-03-02 23:22:00,29.2,19.6,28.31,West,269,11.5,11.5,67,0.00,CLR,CLR,0.00,WeatherDisplay:10.37,2013-03-03 04:22:00,
2013-03-02 23:27:00,29.2,19.9,28.31,WNW,303,8.1,8.1,68,0.00,CLR,CLR,0.00,WeatherDisplay:10.37,2013-03-03 04:27:00,
2013-03-02 23:32:00,29.2,19.9,28.31,NNW,345,6.9,6.9,68,0.00,CLR,CLR,0.00,WeatherDisplay:10.37,2013-03-03 04:32:00,
2013-03-02 23:38:00,29.1,19.8,28.30,NNW,342,13.8,13.8,68,0.00,CLR,CLR,0.00,WeatherDisplay:10.37,2013-03-03 04:38:00,
2013-03-02 23:43:00,29.1,19.8,28.31,WNW,303,8.1,8.1,68,0.00,CLR,CLR,0.00,WeatherDisplay:10.37,2013-03-03 04:43:00,
2013-03-02 23:48:00,29.1,19.8,28.30,NW,304,8.1,8.1,68,0.00,CLR,CLR,0.00,WeatherDisplay:10.37,2013-03-03 04:48:00,
2013-03-02 23:53:00,29.0,19.4,28.31,NNW,328,13.8,13.8,67,0.00,CLR,CLR,0.00,WeatherDisplay:10.37,2013-03-03 04:53:00,
2013-03-02 23:58:00,29.0,19.4,28.31,North,355,9.2,9.2,67,0.00,CLR,CLR,0.00,WeatherDisplay:10.37,2013-03-03 04:58:00,